Map

Track Data

SID SEASON NUMBER BASIN SUBBASIN NAME ISO_TIME NATURE LAT LON WMO_WIND WMO_PRES WMO_AGENCY TRACK_TYPE DIST2LAND LANDFALL IFLAG USA_AGENCY USA_ATCF_ID USA_LAT USA_LON USA_RECORD USA_STATUS USA_WIND USA_PRES USA_SSHS USA_R34_NE USA_R34_SE USA_R34_SW USA_R34_NW USA_R50_NE USA_R50_SE USA_R50_SW USA_R50_NW USA_R64_NE USA_R64_SE USA_R64_SW USA_R64_NW USA_POCI USA_ROCI USA_RMW USA_EYE TOKYO_LAT TOKYO_LON TOKYO_GRADE TOKYO_WIND TOKYO_PRES TOKYO_R50_DIR TOKYO_R50_LONG TOKYO_R50_SHORT TOKYO_R30_DIR TOKYO_R30_LONG TOKYO_R30_SHORT TOKYO_LAND CMA_LAT CMA_LON CMA_CAT CMA_WIND CMA_PRES HKO_LAT HKO_LON HKO_CAT HKO_WIND HKO_PRES NEWDELHI_LAT NEWDELHI_LON NEWDELHI_GRADE NEWDELHI_WIND NEWDELHI_PRES NEWDELHI_CI NEWDELHI_DP NEWDELHI_POCI REUNION_LAT REUNION_LON REUNION_TYPE REUNION_WIND REUNION_PRES REUNION_TNUM REUNION_CI REUNION_RMW REUNION_R34_NE REUNION_R34_SE REUNION_R34_SW REUNION_R34_NW REUNION_R50_NE REUNION_R50_SE REUNION_R50_SW REUNION_R50_NW REUNION_R64_NE REUNION_R64_SE REUNION_R64_SW REUNION_R64_NW BOM_LAT BOM_LON BOM_TYPE BOM_WIND BOM_PRES BOM_TNUM BOM_CI BOM_RMW BOM_R34_NE BOM_R34_SE BOM_R34_SW BOM_R34_NW BOM_R50_NE BOM_R50_SE BOM_R50_SW BOM_R50_NW BOM_R64_NE BOM_R64_SE BOM_R64_SW BOM_R64_NW BOM_ROCI BOM_POCI BOM_EYE BOM_POS_METHOD BOM_PRES_METHOD NADI_LAT NADI_LON NADI_CAT NADI_WIND NADI_PRES WELLINGTON_LAT WELLINGTON_LON WELLINGTON_WIND WELLINGTON_PRES DS824_LAT DS824_LON DS824_STAGE DS824_WIND DS824_PRES TD9636_LAT TD9636_LON TD9636_STAGE TD9636_WIND TD9636_PRES TD9635_LAT TD9635_LON TD9635_WIND TD9635_PRES TD9635_ROCI NEUMANN_LAT NEUMANN_LON NEUMANN_CLASS NEUMANN_WIND NEUMANN_PRES MLC_LAT MLC_LON MLC_CLASS MLC_WIND MLC_PRES USA_GUST BOM_GUST BOM_GUST_PER REUNION_GUST REUNION_GUST_PER USA_SEAHGT USA_SEARAD_NE USA_SEARAD_SE USA_SEARAD_SW USA_SEARAD_NW STORM_SPEED STORM_DIR
1864052S15067 1864 4 SI MM NOT_NAMED 1864-02-21 06:00:00 NR -15.4000 67.3000 reunion main 1144 1144 _____O________ -1 -15.4000 67.3000 99 9.90000 1 64
1864052S15067 1864 4 SI MM NOT_NAMED 1864-02-21 09:00:00 NR -15.3828 67.3357 main 1144 1144 _____P________ -1 -15.3828 67.3357 99 1 66
1864052S15067 1864 4 SI MM NOT_NAMED 1864-02-21 12:00:00 NR -15.3768 67.3562 main 1153 1144 _____P________ -1 -15.3768 67.3562 99 0 0
1864052S15067 1864 4 SI MM NOT_NAMED 1864-02-21 15:00:00 NR -15.3932 67.3462 main 1144 1144 _____P________ -1 -15.3932 67.3462 99 1 227
1864052S15067 1864 4 SI MM NOT_NAMED 1864-02-21 18:00:00 NR -15.4431 67.2904 main 1144 1129 _____P________ -1 -15.4431 67.2904 99 2 229
1864052S15067 1864 4 SI MM NOT_NAMED 1864-02-21 21:00:00 NR -15.5377 67.1735 main 1129 1100 _____P________ -1 -15.5377 67.1735 99 4 231
1864052S15067 1864 4 SI MM NOT_NAMED 1864-02-22 00:00:00 NR -15.6881 66.9800 main 1100 1061 _____P________ -1 -15.6881 66.9800 99 6 231
1864052S15067 1864 4 SI MM NOT_NAMED 1864-02-22 03:00:00 NR -15.9052 66.6942 main 1061 1007 _____P________ -1 -15.9052 66.6942 99 8 231
1864052S15067 1864 4 SI MM NOT_NAMED 1864-02-22 06:00:00 NR -16.2000 66.3200 reunion main 1007 939 _____O____O___ -1 -16.2000 66.3000 99 9.90000 -16.2000 66.4000 7 11 231
1864052S15067 1864 4 SI MM NOT_NAMED 1864-02-22 09:00:00 NR -16.6282 65.7751 main 939 857 _____P____P___ -1 -16.5785 65.7876 99 -16.7276 65.7503 7 15 231
1864052S15067 1864 4 SI MM NOT_NAMED 1864-02-22 12:00:00 NR -17.1249 65.1379 main 848 766 _____P____P___ -1 -17.0285 65.1746 99 -17.2534 65.0891 7 16 231
1864052S15067 1864 4 SI MM NOT_NAMED 1864-02-22 15:00:00 NR -17.6553 64.4471 main 752 672 _____P____P___ -1 -17.5331 64.4857 99 -17.7775 64.4084 7 17 232
1864052S15067 1864 4 SI MM NOT_NAMED 1864-02-22 18:00:00 NR -18.1877 63.7230 main 662 573 _____P____O___ -1 -18.0755 63.7461 99 -18.3000 63.7000 7 18 233
1864052S15067 1864 4 SI MM NOT_NAMED 1864-02-22 21:00:00 NR -18.7295 62.9720 main 573 486 _____P____P___ -1 -18.6392 62.9813 99 -18.8197 62.9627 7 18 233
1864052S15067 1864 4 SI MM NOT_NAMED 1864-02-23 00:00:00 NR -19.2694 62.2215 main 473 390 _____P____P___ -1 -19.2082 62.2175 99 -19.3307 62.2255 7 18 232
1864052S15067 1864 4 SI MM NOT_NAMED 1864-02-23 03:00:00 NR -19.7965 61.5033 main 390 323 _____P____P___ -1 -19.7668 61.4813 99 -19.8262 61.5254 7 17 231
1864052S15067 1864 4 SI MM NOT_NAMED 1864-02-23 06:00:00 NR -20.3000 60.8500 reunion main 323 264 _____O____O___ -1 -20.3000 60.8000 99 9.90000 -20.3000 60.9000 7 15 230
1864052S15067 1864 4 SI MM NOT_NAMED 1864-02-23 09:00:00 NR -20.7461 60.3122 main 264 236 _____P____P___ -1 -20.7470 60.2384 99 -20.7451 60.3859 7 13 227
1864052S15067 1864 4 SI MM NOT_NAMED 1864-02-23 12:00:00 NR -21.1744 59.8340 main 231 208 _____P____P___ -1 -21.1781 59.7178 99 -21.1707 59.9501 7 12 225
1864052S15067 1864 4 SI MM NOT_NAMED 1864-02-23 15:00:00 NR -21.5913 59.4008 main 215 212 _____P____P___ -1 -21.5965 59.2373 99 -21.5860 59.5644 7 11 223
1864052S15067 1864 4 SI MM NOT_NAMED 1864-02-23 18:00:00 NR -22.0025 58.9979 main 215 215 _____P____O___ -1 -22.0050 58.7957 99 -22.0000 59.2000 7 11 222
1864052S15067 1864 4 SI MM NOT_NAMED 1864-02-23 21:00:00 NR -22.4199 58.5911 main 231 231 _____P____P___ -1 -22.4068 58.3922 99 -22.4330 58.7901 7 11 221
1864052S15067 1864 4 SI MM NOT_NAMED 1864-02-24 00:00:00 NR -22.8348 58.2115 main 262 262 _____P____P___ -1 -22.8047 58.0258 99 -22.8649 58.3973 7 11 219
1864052S15067 1864 4 SI MM NOT_NAMED 1864-02-24 03:00:00 NR -23.2454 57.8631 main 302 302 _____P____P___ -1 -23.2015 57.6953 99 -23.2893 58.0308 7 10 217
1864052S15067 1864 4 SI MM NOT_NAMED 1864-02-24 06:00:00 NR -23.6500 57.5500 reunion main 316 320 _____O____O___ -1 -23.6000 57.4000 99 9.90000 -23.7000 57.7000 7 10 216
1864052S15067 1864 4 SI MM NOT_NAMED 1864-02-24 09:00:00 NR -24.0324 57.2471 main 333 333 _____P____P___ -1 -23.9920 57.0974 99 -24.0728 57.3969 7 9 214
1864052S15067 1864 4 SI MM NOT_NAMED 1864-02-24 12:00:00 NR -24.4084 56.9820 main 364 364 _____P____P___ -1 -24.3822 56.8326 99 -24.4346 57.1314 7 9 211
1864052S15067 1864 4 SI MM NOT_NAMED 1864-02-24 15:00:00 NR -24.7893 56.7517 main 399 396 _____P____P___ -1 -24.7744 56.6033 99 -24.8042 56.9002 7 9 207
1864052S15067 1864 4 SI MM NOT_NAMED 1864-02-24 18:00:00 NR -25.1863 56.5534 main 436 434 _____P____O___ -1 -25.1726 56.4069 99 -25.2000 56.7000 7 9 203
1864052S15067 1864 4 SI MM NOT_NAMED 1864-02-24 21:00:00 NR -25.6072 56.3768 main 476 476 _____P____P___ -1 -25.5804 56.2409 99 -25.6339 56.5126 7 9 199
1864052S15067 1864 4 SI MM NOT_NAMED 1864-02-25 00:00:00 NR -26.0495 56.2286 main 517 517 _____P____P___ -1 -26.0017 56.1028 99 -26.0973 56.3544 7 9 195
1864052S15067 1864 4 SI MM NOT_NAMED 1864-02-25 03:00:00 NR -26.5137 56.1045 main 572 572 _____P____P___ -1 -26.4404 55.9900 99 -26.5871 56.2189 7 10 192
1864052S15067 1864 4 SI MM NOT_NAMED 1864-02-25 06:00:00 NR -27.0000 56.0000 reunion main 627 627 _____O____O___ -1 -26.9000 55.9000 99 9.90000 -27.1000 56.1000 7 11 191
1864052S15067 1864 4 SI MM NOT_NAMED 1864-02-25 09:00:00 NR -27.5412 55.8818 main 682 682 _____P____P___ -1 -27.4458 55.8019 99 -27.6365 55.9617 7 11 190
1864052S15067 1864 4 SI MM NOT_NAMED 1864-02-25 12:00:00 NR -28.1062 55.7854 main 748 748 _____P____P___ -1 -28.0199 55.7301 99 -28.1925 55.8408 7 12 187
1864052S15067 1864 4 SI MM NOT_NAMED 1864-02-25 15:00:00 NR -28.6795 55.7157 main 815 815 _____P____P___ -1 -28.6068 55.6819 99 -28.7522 55.7494 7 11 185
1864052S15067 1864 4 SI MM NOT_NAMED 1864-02-25 18:00:00 NR -29.2457 55.6774 main 871 871 _____P____O___ -1 -29.1914 55.6547 99 -29.3000 55.7000 7 11 182
1864052S15067 1864 4 SI MM NOT_NAMED 1864-02-25 21:00:00 NR -29.7912 55.6734 main 938 938 _____P____P___ -1 -29.7584 55.6458 99 -29.8241 55.7010 7 11 0
1864052S15067 1864 4 SI MM NOT_NAMED 1864-02-26 00:00:00 NR -30.3074 55.6914 main 994 994 _____P____P___ -1 -30.2923 55.6522 99 -30.3275 55.7435 7 10 177
1864052S15067 1864 4 SI MM NOT_NAMED 1864-02-26 03:00:00 NR -30.7911 55.7190 main 1050 1050 _____P____P___ -1 -30.7780 55.6713 99 -30.8172 55.8144 7 9 178
1864052S15067 1864 4 SI MM NOT_NAMED 1864-02-26 06:00:00 NR -31.2200 55.7400 reunion main 1089 1089 _____O____O___ -1 -31.2000 55.7000 99 9.90000 -31.3000 55.9000 7 8 0
1864052S15067 1864 4 SI MM NOT_NAMED 1864-02-26 09:00:00 NR -31.5473 55.7356 main 1110 1110 _____P________ -1 -31.5473 55.7356 99 7 6 177
1864052S15067 1864 4 SI MM NOT_NAMED 1864-02-26 12:00:00 NR -31.8257 55.7770 main 1138 1138 _____P________ -1 -31.8257 55.7770 99 7 5 171
1864052S15067 1864 4 SI MM NOT_NAMED 1864-02-26 15:00:00 NR -32.0450 55.8233 main 1152 1152 _____P________ -1 -32.0450 55.8233 99 7 4 168
1864052S15067 1864 4 SI MM NOT_NAMED 1864-02-26 18:00:00 NR -32.2150 55.8737 main 1174 1174 _____P________ -1 -32.2150 55.8737 99 3 163
1864052S15067 1864 4 SI MM NOT_NAMED 1864-02-26 21:00:00 NR -32.3457 55.9274 main 1181 1181 _____P________ -1 -32.3457 55.9274 99 3 158
1864052S15067 1864 4 SI MM NOT_NAMED 1864-02-27 00:00:00 NR -32.4469 55.9835 main 1195 1195 _____P________ -1 -32.4469 55.9835 99 2 153
1864052S15067 1864 4 SI MM NOT_NAMED 1864-02-27 03:00:00 NR -32.5284 56.0413 main 1202 1202 _____P________ -1 -32.5284 56.0413 99 2 148
1864052S15067 1864 4 SI MM NOT_NAMED 1864-02-27 06:00:00 NR -32.6000 56.1000 reunion main 1217 _____O________ -1 -32.6000 56.1000 99 9.90000 2 144

About IBTrACS Database

This database is a web-friendly format of International Best Track Archive for Climate Stewardship (IBTrACS), a global best track data archive curated by NOAA dating back to 1842.

Updated: 2021-10-08